Felts Field Spokane US
ICAO: KSFF
IATA: SFF
Category: Medium
Scheduled Services: No

Elevation: 1953 ft
TransAlt. 18000 ft.

Airport Communications:
SPOKANE APP/DEP:133.35
ATIS:120.55
CTAF:132.5
GND:121.7
SEATTLE RDO:122.2
TWR:132.5
UNICOM:122.95

KSFF Zoom In..

Runways:

(A) RW 04L length 4499 ft width 150 ft
---- / hdg 38

(B) RW 04R length 2650 ft width 75 ft
---- / hdg 38

(C) RW 22L length 2650 ft width 75 ft
---- / hdg 218

(D) RW 22R length 4499 ft width 150 ft
ILS 111.70 / hdg 218

Location; KSFF
Day. 06 / Time. 05.53 Zulu
* Altimeter: 29.70
* Temperature: 13° c. 55.4°f.
* Wind from: 020° Speed 03 kn.
Dewpoint: 12° c.
Visibility: 10 Statute Miles.
Clouds: Few 9000 ft.
Clouds: Broken 11000 ft.

KSFF 060553Z AUTO 02003KT 10SM FEW090 BKN110 13/12 A2970 RMK AO2 SLP049 60008 T01330117 10194 20128 53005


Wind From 020°
Speed 03 kn.

 
 
jpsmedia worldairports.se 2020   terms of use